BrazilFixed distance
100K Ultra Marathon Brazil
7 Sep2013
Distance
105km
Finishers
2018 men2 women
Winning time
10:10:50h
Pace distribution
20 finishers · 6.31–10.31 km/h
6.31 km/hmedian 8.3010.31 km/h
Results
Ranks 1–20 of 20
| Rank | Runner | Time | Pace | Cat. | Placing |
|---|---|---|---|---|---|
| 1 | Rastro Assessoria Espo... | 10:10:50h | 10.31 | M23 | 1st M · 1st M23 |
| 2 | Santana | 10:26:32h | 10.05 | M35 | 2nd M · 1st M35 |
| 3 | Correios | 10:28:54h | 10.02 | M40 | 3rd M · 1st M40 |
| 4 | Brasília | 10:32:47h | 9.96 | M45 | 4th M · 1st M45 |
| 5 | Drawstudio / Drawtech | 10:59:36h | 9.55 | M50 | 5th M · 1st M50 |
| 6 | Diniz Treinamentos | 11:38:10h | 9.02 | M23 | 6th M · 2nd M23 |
| 7 | Pinhais Thyssenkrupp | 12:07:19h | 8.66 | M45 | 7th M · 2nd M45 |
| 8 | Jesus Ama Você | 12:22:17h | 8.49 | M55 | 8th M · 1st M55 |
| 9 | Papai Canela Quente | 12:31:55h | 8.38 | M50 | 9th M · 2nd M50 |
| 10 | Lauer Run Hard | 12:35:42h | 8.34 | M35 | 10th M · 2nd M35 |
| 11 | V8 Assessoria Esportiva | 12:39:07h | 8.30 | MU23 | 11th M · 1st MU23 |
| 12 | ULTRA Vanderlei | 13:01:26h | 8.06 | M35 | 12th M · 3rd M35 |
| 13 | Coxa Runners | 13:29:15h | 7.79 | M50 | 13th M · 3rd M50 |
| 14 | Tele-E.w. | 13:36:40h | 7.71 | M45 | 14th M · 3rd M45 |
| 15 | Perfipar | 13:43:21h | 7.65 | W35 | 1st F · 1st W35 |
| 16 | Bope / Coe | 15:10:00h | 6.92 | M40 | 15th M · 2nd M40 |
| 17 | Oberdan | 15:24:51h | 6.81 | M50 | 16th M · 4th M50 |
| 18 | Calisto | 15:24:51h | 6.81 | W50 | 2nd F · 1st W50 |
| 19 | Rotam 23 Bpm | 15:30:02h | 6.77 | M23 | 17th M · 3rd M23 |
| 20 | Bompontofinal | 16:38:00h | 6.31 | M45 | 18th M · 4th M45 |
- 1Rastro Assessoria Espo...1st M · 1st M23Time10:10:50hPace10.31Cat.M23
- 2Santana2nd M · 1st M35Time10:26:32hPace10.05Cat.M35
- 3Correios3rd M · 1st M40Time10:28:54hPace10.02Cat.M40
- 4Brasília4th M · 1st M45Time10:32:47hPace9.96Cat.M45
- 5Drawstudio / Drawtech5th M · 1st M50Time10:59:36hPace9.55Cat.M50
- 6Diniz Treinamentos6th M · 2nd M23Time11:38:10hPace9.02Cat.M23
- 7Pinhais Thyssenkrupp7th M · 2nd M45Time12:07:19hPace8.66Cat.M45
- 8Jesus Ama Você8th M · 1st M55Time12:22:17hPace8.49Cat.M55
- 9Papai Canela Quente9th M · 2nd M50Time12:31:55hPace8.38Cat.M50
- 10Lauer Run Hard10th M · 2nd M35Time12:35:42hPace8.34Cat.M35
- 11V8 Assessoria Esportiva11th M · 1st MU23Time12:39:07hPace8.30Cat.MU23
- 12ULTRA Vanderlei12th M · 3rd M35Time13:01:26hPace8.06Cat.M35
- 13Coxa Runners13th M · 3rd M50Time13:29:15hPace7.79Cat.M50
- 14Tele-E.w.14th M · 3rd M45Time13:36:40hPace7.71Cat.M45
- 15Perfipar1st F · 1st W35Time13:43:21hPace7.65Cat.W35
- 16Bope / Coe15th M · 2nd M40Time15:10:00hPace6.92Cat.M40
- 17Oberdan16th M · 4th M50Time15:24:51hPace6.81Cat.M50
- 18Calisto2nd F · 1st W50Time15:24:51hPace6.81Cat.W50
- 19Rotam 23 Bpm17th M · 3rd M23Time15:30:02hPace6.77Cat.M23
- 20Bompontofinal18th M · 4th M45Time16:38:00hPace6.31Cat.M45